Time;durP1;ratioP1;P1;durP2;ratioP2;P2;SDS_P1;SDS_P2;PMS_P1;PMS_P2;Temp;Humidity;BMP_temperature;BMP_pressure;BME280_temperature;BME280_humidity;BME280_pressure;Samples;Min_cycle;Max_cycle;Signal;HPM_P1;HPM_P2
2023/09/02 00:02:02;;;;;;;4.90;2.08;;;15.80;99.90;;;;;;5004414;28;20034;-39
2023/09/02 00:04:28;;;;;;;2.72;1.60;;;15.80;99.90;;;;;;5002257;28;20038;-37
2023/09/02 00:06:54;;;;;;;4.72;1.77;;;15.80;99.90;;;;;;5001301;28;20033;-40
2023/09/02 00:09:20;;;;;;;2.75;1.83;;;15.80;99.90;;;;;;5003053;28;20073;-35
2023/09/02 00:11:45;;;;;;;4.10;2.15;;;15.70;99.90;;;;;;5008511;28;20022;-34
2023/09/02 00:14:12;;;;;;;1.98;1.80;;;15.60;99.90;;;;;;5004243;28;20033;-33
2023/09/02 00:16:38;;;;;;;1.98;1.85;;;15.50;99.90;;;;;;5004670;28;20041;-35
2023/09/02 00:19:04;;;;;;;4.60;2.05;;;15.60;99.90;;;;;;5006837;28;20025;-38
2023/09/02 00:21:31;;;;;;;4.25;1.70;;;15.60;99.90;;;;;;5003722;28;20192;-34
2023/09/02 00:24:02;;;;;;;2.23;2.00;;;15.70;99.90;;;;;;5003476;28;20113;-34
2023/09/02 00:26:31;;;;;;;2.42;1.65;;;15.60;99.90;;;;;;5002783;28;20359;-36
2023/09/02 00:28:57;;;;;;;2.00;1.80;;;15.70;99.90;;;;;;5006065;28;20053;-35
2023/09/02 00:31:23;;;;;;;2.40;1.85;;;15.70;99.90;;;;;;5002349;28;20026;-34
2023/09/02 00:33:49;;;;;;;4.82;1.70;;;15.60;99.90;;;;;;5004315;28;20041;-33
2023/09/02 00:36:14;;;;;;;3.50;2.08;;;15.60;99.90;;;;;;5006752;28;20033;-33
2023/09/02 00:38:40;;;;;;;2.15;1.90;;;15.60;99.90;;;;;;5001060;28;20034;-34
2023/09/02 00:41:09;;;;;;;1.80;1.60;;;15.70;99.90;;;;;;5004406;28;20030;-36
2023/09/02 00:43:35;;;;;;;4.85;2.10;;;15.50;99.90;;;;;;5000733;28;20072;-31
2023/09/02 00:46:01;;;;;;;2.47;2.03;;;15.40;99.90;;;;;;5004857;28;20125;-33
2023/09/02 00:48:27;;;;;;;3.10;1.80;;;15.40;99.90;;;;;;5001590;28;20112;-34
2023/09/02 00:50:52;;;;;;;4.82;1.98;;;15.40;99.90;;;;;;5006093;28;20037;-32
2023/09/02 00:53:18;;;;;;;3.00;2.00;;;15.40;99.90;;;;;;5002242;28;20037;-33
2023/09/02 00:55:45;;;;;;;2.08;1.88;;;15.50;99.90;;;;;;5003783;28;20467;-33
2023/09/02 00:58:11;;;;;;;2.22;1.92;;;15.50;99.90;;;;;;5002255;28;20470;-40
2023/09/02 01:00:37;;;;;;;2.28;2.08;;;15.60;99.90;;;;;;4999901;28;20034;-40
2023/09/02 01:03:03;;;;;;;3.35;1.90;;;15.60;99.90;;;;;;4998705;28;20328;-38
2023/09/02 01:05:29;;;;;;;3.28;1.98;;;15.60;99.90;;;;;;5003036;28;20569;-37
2023/09/02 01:07:56;;;;;;;2.13;1.90;;;15.60;99.90;;;;;;5003456;28;20025;-37
2023/09/02 01:10:23;;;;;;;4.30;1.80;;;15.60;99.90;;;;;;5003388;28;20353;-41
2023/09/02 01:12:49;;;;;;;2.17;1.70;;;15.60;99.90;;;;;;5001292;28;20014;-38
2023/09/02 01:15:14;;;;;;;3.40;1.48;;;15.50;99.90;;;;;;5001200;28;20022;-40
2023/09/02 01:17:40;;;;;;;3.00;1.83;;;15.40;99.90;;;;;;5002602;28;20373;-36
2023/09/02 01:20:10;;;;;;;2.03;1.65;;;15.30;99.90;;;;;;5005101;28;20029;-38
2023/09/02 01:23:14;;;;;;;2.15;1.80;;;15.40;99.90;;;;;;5003233;28;20046;-36
2023/09/02 01:26:38;;;;;;;2.03;1.77;;;15.40;99.90;;;;;;5001625;28;20030;-39
2023/09/02 01:29:08;;;;;;;3.83;1.77;;;15.40;99.90;;;;;;5003418;28;20049;-38
2023/09/02 01:31:36;;;;;;;2.17;1.80;;;15.30;99.90;;;;;;5000787;28;20534;-38
2023/09/02 01:34:06;;;;;;;2.90;1.85;;;15.30;99.90;;;;;;5003903;28;20080;-38
2023/09/02 01:36:33;;;;;;;2.03;1.80;;;15.30;99.90;;;;;;5001047;28;20033;-36
2023/09/02 01:38:59;;;;;;;2.00;1.80;;;15.10;99.90;;;;;;5004494;28;20026;-38
2023/09/02 01:41:27;;;;;;;2.55;1.98;;;15.10;99.90;;;;;;5002734;28;20842;-39
2023/09/02 01:43:54;;;;;;;2.83;1.65;;;15.10;99.90;;;;;;5002612;28;20132;-40
2023/09/02 01:46:20;;;;;;;2.13;1.90;;;15.10;99.90;;;;;;5002075;28;20041;-41
2023/09/02 01:48:46;;;;;;;4.00;1.98;;;15.20;99.90;;;;;;5004082;28;20030;-40
2023/09/02 01:51:14;;;;;;;1.85;1.60;;;15.20;99.90;;;;;;5004305;28;20096;-38
2023/09/02 01:53:40;;;;;;;2.45;2.00;;;15.30;99.90;;;;;;5003189;28;20040;-39
2023/09/02 01:56:05;;;;;;;2.00;1.80;;;15.30;99.90;;;;;;5008746;28;20032;-40
2023/09/02 01:58:31;;;;;;;4.72;2.00;;;15.30;99.90;;;;;;5005007;28;20411;-38
2023/09/02 02:00:58;;;;;;;2.00;1.80;;;15.20;99.90;;;;;;5002736;28;20092;-37
2023/09/02 02:03:33;;;;;;;2.88;2.17;;;15.20;99.90;;;;;;5006578;28;20534;-37
2023/09/02 02:06:00;;;;;;;1.90;1.70;;;15.10;99.90;;;;;;5007035;28;20769;-35
2023/09/02 02:08:31;;;;;;;2.07;1.87;;;15.10;99.90;;;;;;5008932;28;20026;-39
2023/09/02 02:11:01;;;;;;;2.03;1.85;;;15.00;99.90;;;;;;5006329;28;20018;-32
2023/09/02 02:13:27;;;;;;;2.30;2.10;;;15.10;99.90;;;;;;5009826;28;20034;-30
2023/09/02 02:15:52;;;;;;;4.00;2.10;;;15.10;99.90;;;;;;5007225;28;20040;-33
2023/09/02 02:18:18;;;;;;;4.03;2.15;;;15.10;99.90;;;;;;5005015;28;20193;-32
2023/09/02 02:20:56;;;;;;;3.58;2.03;;;15.00;99.90;;;;;;5008601;28;20042;-34
2023/09/02 02:23:22;;;;;;;2.70;2.15;;;15.00;99.90;;;;;;5000265;28;20546;-33
2023/09/02 02:25:48;;;;;;;2.30;2.08;;;15.00;99.90;;;;;;5005069;28;20022;-32
2023/09/02 02:28:13;;;;;;;2.42;1.95;;;15.00;99.90;;;;;;5006664;28;20022;-31
2023/09/02 02:30:39;;;;;;;3.42;2.10;;;15.00;99.90;;;;;;5008467;28;20187;-32
2023/09/02 02:33:04;;;;;;;3.47;2.50;;;15.00;99.90;;;;;;5005121;28;20128;-31
2023/09/02 02:35:31;;;;;;;2.35;2.15;;;15.00;99.90;;;;;;5007943;28;20034;-31
2023/09/02 02:37:59;;;;;;;5.88;2.20;;;14.90;99.90;;;;;;5006703;28;20030;-34
2023/09/02 02:40:25;;;;;;;3.70;2.27;;;14.90;99.90;;;;;;5005084;28;20487;-34
2023/09/02 02:42:51;;;;;;;3.58;2.40;;;14.80;99.90;;;;;;5010975;28;20029;-33
2023/09/02 02:45:16;;;;;;;4.20;2.20;;;14.80;99.90;;;;;;5005979;28;20421;-31
2023/09/02 02:47:42;;;;;;;3.03;2.30;;;14.80;99.90;;;;;;5008946;28;20076;-34
2023/09/02 02:50:08;;;;;;;6.55;2.20;;;14.80;99.90;;;;;;5005731;28;20030;-30
2023/09/02 02:52:34;;;;;;;3.60;2.20;;;14.80;99.90;;;;;;5010127;28;20045;-31
2023/09/02 02:54:59;;;;;;;3.35;2.58;;;14.70;99.90;;;;;;5007260;28;20029;-34
2023/09/02 02:57:25;;;;;;;2.30;2.10;;;14.60;99.90;;;;;;5008117;28;20041;-31
2023/09/02 02:59:51;;;;;;;2.45;2.25;;;14.60;99.90;;;;;;5007915;28;20167;-33
2023/09/02 03:02:17;;;;;;;2.95;2.30;;;14.60;99.90;;;;;;5005922;28;20038;-33
2023/09/02 03:04:47;;;;;;;4.25;2.22;;;14.70;99.90;;;;;;5009738;28;20038;-33
2023/09/02 03:07:14;;;;;;;2.95;2.40;;;14.60;99.90;;;;;;5008368;28;20368;-35
2023/09/02 03:09:40;;;;;;;2.55;2.28;;;14.60;99.90;;;;;;5004968;28;20044;-32
2023/09/02 03:12:06;;;;;;;2.88;2.20;;;14.60;99.90;;;;;;5007399;28;20040;-31
2023/09/02 03:14:32;;;;;;;3.95;2.15;;;14.60;99.90;;;;;;5007553;28;20095;-32
2023/09/02 03:16:58;;;;;;;2.42;2.22;;;14.60;99.90;;;;;;5006491;28;20026;-32
2023/09/02 03:19:25;;;;;;;2.78;2.38;;;14.60;99.90;;;;;;5007926;28;20034;-39
2023/09/02 03:21:50;;;;;;;2.55;2.35;;;14.60;99.90;;;;;;5005316;28;20054;-38
2023/09/02 03:24:16;;;;;;;2.85;2.40;;;14.60;99.90;;;;;;5001618;28;20053;-39
2023/09/02 03:26:42;;;;;;;2.70;2.20;;;14.50;99.90;;;;;;5002541;28;20534;-37
2023/09/02 03:29:07;;;;;;;2.78;2.50;;;14.50;99.90;;;;;;5004732;28;20026;-40
2023/09/02 03:31:33;;;;;;;2.78;2.00;;;14.60;99.90;;;;;;5004951;28;20073;-40
2023/09/02 03:33:58;;;;;;;5.57;2.30;;;14.50;99.90;;;;;;5005472;28;20049;-37
2023/09/02 03:36:24;;;;;;;2.40;2.20;;;14.40;99.90;;;;;;5006917;28;20030;-40
2023/09/02 03:38:50;;;;;;;2.65;2.30;;;14.40;99.90;;;;;;5004071;28;20030;-37
2023/09/02 03:41:19;;;;;;;3.75;2.53;;;14.40;99.90;;;;;;5007083;28;20072;-40
2023/09/02 03:43:45;;;;;;;3.33;2.55;;;14.40;99.90;;;;;;5005242;28;20022;-36
2023/09/02 03:46:11;;;;;;;4.25;2.33;;;14.40;99.90;;;;;;5003985;28;20022;-37
2023/09/02 03:48:36;;;;;;;3.10;2.22;;;14.40;99.90;;;;;;5003973;28;20025;-38
2023/09/02 03:51:05;;;;;;;3.08;2.15;;;14.30;99.90;;;;;;5005022;28;20041;-37
2023/09/02 03:53:31;;;;;;;3.38;2.33;;;14.20;99.90;;;;;;5003039;28;20484;-37
2023/09/02 03:55:58;;;;;;;5.40;2.50;;;14.30;99.90;;;;;;5003348;28;20108;-37
2023/09/02 03:58:24;;;;;;;3.70;2.33;;;14.20;99.90;;;;;;5005287;28;20032;-37
2023/09/02 04:00:50;;;;;;;3.65;2.50;;;14.10;99.90;;;;;;5001153;28;20042;-38
2023/09/02 04:03:19;;;;;;;2.30;2.10;;;14.10;99.90;;;;;;5003223;28;20029;-40
2023/09/02 04:05:45;;;;;;;2.80;2.10;;;14.00;99.90;;;;;;5001754;28;20026;-35
2023/09/02 04:08:11;;;;;;;1.63;1.50;;;14.00;99.90;;;;;;5003427;28;20033;-40
2023/09/02 04:10:36;;;;;;;4.40;1.90;;;13.80;99.90;;;;;;5003336;28;20025;-39
2023/09/02 04:13:02;;;;;;;2.55;1.95;;;13.80;99.90;;;;;;5000639;28;20045;-37
2023/09/02 04:15:28;;;;;;;3.78;1.60;;;13.80;99.90;;;;;;5001703;28;20079;-38
2023/09/02 04:17:54;;;;;;;2.60;2.20;;;13.80;99.90;;;;;;5003585;28;20210;-39
2023/09/02 04:20:20;;;;;;;2.75;1.98;;;13.80;99.90;;;;;;5002782;28;21522;-38
2023/09/02 04:22:46;;;;;;;1.90;1.80;;;13.80;99.90;;;;;;5002132;28;20077;-39
2023/09/02 04:25:12;;;;;;;3.33;2.25;;;13.80;99.90;;;;;;5001563;28;20114;-39
2023/09/02 04:27:38;;;;;;;1.88;1.63;;;13.90;99.90;;;;;;5002028;28;20181;-38
2023/09/02 04:30:04;;;;;;;2.95;2.20;;;13.80;99.90;;;;;;5004108;28;20026;-32
2023/09/02 04:32:29;;;;;;;2.88;1.90;;;13.90;99.90;;;;;;5004251;28;20076;-32
2023/09/02 04:34:57;;;;;;;2.20;2.00;;;13.80;99.90;;;;;;5003437;28;20492;-30
2023/09/02 04:37:22;;;;;;;2.50;2.30;;;13.80;99.90;;;;;;5004194;28;20535;-38
2023/09/02 04:39:48;;;;;;;3.80;1.98;;;13.80;99.90;;;;;;5003446;28;20033;-33
2023/09/02 04:42:13;;;;;;;3.55;2.10;;;13.90;99.90;;;;;;5002512;28;20017;-30
2023/09/02 04:44:39;;;;;;;2.10;1.90;;;13.90;99.90;;;;;;5003292;28;20430;-33
2023/09/02 04:47:06;;;;;;;2.67;2.13;;;13.80;99.90;;;;;;5000775;28;20025;-30
2023/09/02 04:49:32;;;;;;;3.60;2.42;;;13.90;99.90;;;;;;5000642;28;20514;-33
2023/09/02 04:51:58;;;;;;;2.33;2.13;;;13.80;99.90;;;;;;5002570;28;20036;-31
2023/09/02 04:54:24;;;;;;;2.78;2.00;;;13.80;99.90;;;;;;5000815;28;20038;-33
2023/09/02 04:56:49;;;;;;;2.80;1.85;;;13.90;99.90;;;;;;5001822;28;20083;-34
2023/09/02 04:59:15;;;;;;;3.28;2.28;;;13.80;99.90;;;;;;5004376;28;20026;-34
2023/09/02 05:01:40;;;;;;;2.33;2.10;;;13.80;99.90;;;;;;5003339;28;20036;-32
2023/09/02 05:04:06;;;;;;;5.18;2.20;;;13.80;99.90;;;;;;5003869;28;20030;-31
2023/09/02 05:06:32;;;;;;;2.85;2.33;;;13.80;99.90;;;;;;5003526;28;20017;-30
2023/09/02 05:08:57;;;;;;;2.95;2.40;;;13.80;99.90;;;;;;5002368;28;20029;-31
2023/09/02 05:11:23;;;;;;;2.45;2.25;;;13.80;99.90;;;;;;5003887;28;20725;-33
2023/09/02 05:13:49;;;;;;;2.28;2.08;;;13.90;99.90;;;;;;5003289;28;20038;-32
2023/09/02 05:16:14;;;;;;;3.85;2.22;;;13.90;99.90;;;;;;5002117;28;20048;-31
2023/09/02 05:18:40;;;;;;;2.42;2.17;;;13.90;99.90;;;;;;5000685;28;20817;-31
2023/09/02 05:21:06;;;;;;;6.20;2.60;;;13.90;99.90;;;;;;5003338;28;20375;-30
2023/09/02 05:23:32;;;;;;;3.17;2.35;;;14.00;99.90;;;;;;5002382;28;20038;-31
2023/09/02 05:25:58;;;;;;;3.63;2.38;;;14.00;99.90;;;;;;5003180;28;20113;-32
2023/09/02 05:28:25;;;;;;;3.08;2.28;;;14.00;99.90;;;;;;5001429;28;20105;-37
2023/09/02 05:30:51;;;;;;;3.20;2.33;;;14.10;99.90;;;;;;5001998;28;20069;-33
2023/09/02 05:33:17;;;;;;;5.38;2.83;;;14.10;99.90;;;;;;5002198;28;20038;-34
2023/09/02 05:35:46;;;;;;;3.63;2.40;;;14.10;99.90;;;;;;5000836;28;20463;-32
2023/09/02 05:38:11;;;;;;;2.53;2.10;;;14.10;99.90;;;;;;5000299;28;20034;-32
2023/09/02 05:40:41;;;;;;;2.55;2.35;;;14.20;99.90;;;;;;5004667;28;20030;-34
2023/09/02 05:43:07;;;;;;;4.90;2.58;;;14.20;99.90;;;;;;5000480;28;20041;-34
2023/09/02 05:45:33;;;;;;;3.58;2.60;;;14.20;99.90;;;;;;5004182;28;20037;-33
2023/09/02 05:48:00;;;;;;;2.53;2.33;;;14.30;99.90;;;;;;5001275;28;20092;-32
2023/09/02 05:50:26;;;;;;;3.55;2.30;;;14.40;99.90;;;;;;5004212;28;20022;-33
2023/09/02 05:52:52;;;;;;;4.25;2.47;;;14.40;99.90;;;;;;4998103;28;20032;-31
2023/09/02 05:55:17;;;;;;;3.80;2.50;;;14.50;99.90;;;;;;5003022;28;20054;-34
2023/09/02 05:57:43;;;;;;;5.93;3.08;;;14.60;99.90;;;;;;5002742;28;20581;-35
2023/09/02 06:00:10;;;;;;;4.63;2.97;;;14.60;99.90;;;;;;4999470;28;20030;-34
2023/09/02 06:02:35;;;;;;;4.93;3.00;;;14.70;99.90;;;;;;5000210;28;20137;-32
2023/09/02 06:05:02;;;;;;;4.50;2.72;;;14.80;99.90;;;;;;5000887;28;20114;-34
2023/09/02 06:07:27;;;;;;;5.07;3.08;;;14.80;99.90;;;;;;4997861;28;20030;-32
2023/09/02 06:09:53;;;;;;;5.35;3.03;;;14.90;99.90;;;;;;4999768;28;20859;-35
2023/09/02 06:12:18;;;;;;;4.35;3.47;;;15.00;99.90;;;;;;5002619;28;20543;-36
2023/09/02 06:14:44;;;;;;;3.70;3.33;;;15.10;99.90;;;;;;5006425;28;20034;-33
2023/09/02 06:17:10;;;;;;;7.32;3.53;;;15.20;99.90;;;;;;4999825;28;20033;-34
2023/09/02 06:19:35;;;;;;;6.90;3.90;;;15.30;99.90;;;;;;5006045;28;20123;-33
2023/09/02 06:22:01;;;;;;;4.30;3.40;;;15.30;99.90;;;;;;5001443;28;20412;-33
2023/09/02 06:24:27;;;;;;;6.57;3.60;;;15.50;99.90;;;;;;5000090;28;20722;-31
2023/09/02 06:26:53;;;;;;;4.00;2.97;;;15.50;99.90;;;;;;4997772;28;20041;-31
2023/09/02 06:29:19;;;;;;;5.22;3.33;;;15.60;99.90;;;;;;4999052;28;20034;-34
2023/09/02 06:31:45;;;;;;;4.68;3.28;;;15.60;99.90;;;;;;5002375;28;20087;-32
2023/09/02 06:34:11;;;;;;;5.78;3.47;;;15.70;99.90;;;;;;4999550;28;20034;-32
2023/09/02 06:36:37;;;;;;;3.88;3.10;;;15.80;99.90;;;;;;4999307;28;20100;-32
2023/09/02 06:39:04;;;;;;;5.30;3.63;;;15.90;99.90;;;;;;5005103;28;20038;-35
2023/09/02 06:41:30;;;;;;;4.93;3.15;;;16.00;99.90;;;;;;5003199;28;20029;-32
2023/09/02 06:43:56;;;;;;;5.75;3.10;;;16.00;99.90;;;;;;5006448;28;20091;-34
2023/09/02 06:46:22;;;;;;;5.22;3.42;;;16.10;99.90;;;;;;5000236;28;20030;-30
2023/09/02 06:48:49;;;;;;;5.40;3.60;;;16.30;99.90;;;;;;5004315;28;20022;-31
2023/09/02 06:51:15;;;;;;;4.15;3.20;;;16.50;99.90;;;;;;5006189;28;20104;-32
2023/09/02 06:53:42;;;;;;;4.43;3.33;;;16.60;99.90;;;;;;5004802;28;20471;-34
2023/09/02 06:56:09;;;;;;;5.20;3.45;;;16.70;99.90;;;;;;5006364;28;20044;-30
2023/09/02 06:58:38;;;;;;;4.53;2.95;;;16.80;99.90;;;;;;5004847;28;20555;-30
2023/09/02 07:01:04;;;;;;;4.88;3.17;;;16.90;99.90;;;;;;5004831;28;20438;-33
2023/09/02 07:03:30;;;;;;;4.05;3.13;;;17.10;99.90;;;;;;5002962;28;20521;-34
2023/09/02 07:06:06;;;;;;;4.20;2.90;;;17.10;99.90;;;;;;5008292;28;20025;-35
2023/09/02 07:08:33;;;;;;;4.75;2.97;;;17.40;99.90;;;;;;5023406;28;20507;-31
2023/09/02 07:10:59;;;;;;;4.07;3.60;;;17.60;99.90;;;;;;5005649;28;20136;-34
2023/09/02 07:13:24;;;;;;;4.22;3.05;;;17.70;99.90;;;;;;5003641;28;20622;-33
2023/09/02 07:15:58;;;;;;;4.30;3.33;;;17.80;99.90;;;;;;5005722;28;20033;-32
2023/09/02 07:18:24;;;;;;;4.82;3.13;;;18.00;99.90;;;;;;5007524;28;20111;-32
2023/09/02 07:20:50;;;;;;;7.47;3.40;;;18.00;99.90;;;;;;5003723;28;20030;-31
2023/09/02 07:23:16;;;;;;;4.30;3.25;;;18.00;99.90;;;;;;5003830;28;20121;-32
2023/09/02 07:25:42;;;;;;;3.75;3.03;;;18.10;99.90;;;;;;5003129;28;20040;-33
2023/09/02 07:28:07;;;;;;;4.05;2.80;;;18.30;99.90;;;;;;5004655;28;20038;-35
2023/09/02 07:30:37;;;;;;;2.80;2.60;;;18.40;99.90;;;;;;5002876;28;20037;-32
2023/09/02 07:33:03;;;;;;;3.13;2.50;;;18.60;99.90;;;;;;5005014;28;20557;-31
2023/09/02 07:35:29;;;;;;;5.78;3.05;;;18.80;99.90;;;;;;5006328;28;20056;-34
2023/09/02 07:37:54;;;;;;;3.47;3.17;;;19.00;99.90;;;;;;5003530;28;20034;-30
2023/09/02 07:40:21;;;;;;;4.55;3.10;;;19.10;99.90;;;;;;5007037;28;20014;-31
2023/09/02 07:42:46;;;;;;;4.40;2.78;;;19.20;99.90;;;;;;5003785;28;20109;-30
2023/09/02 07:45:13;;;;;;;3.45;2.60;;;19.40;99.90;;;;;;5007586;28;20120;-34
2023/09/02 07:47:39;;;;;;;3.05;2.55;;;19.60;99.90;;;;;;5005196;28;20030;-34
2023/09/02 07:50:05;;;;;;;3.30;2.70;;;19.60;99.90;;;;;;5000330;28;20033;-31
2023/09/02 07:52:31;;;;;;;3.53;3.00;;;19.70;99.90;;;;;;5019751;28;20026;-31
2023/09/02 07:54:59;;;;;;;3.25;2.67;;;19.80;99.90;;;;;;5015984;28;20488;-32
2023/09/02 07:57:25;;;;;;;3.08;2.78;;;20.00;99.90;;;;;;5006182;28;20030;-33
2023/09/02 07:59:51;;;;;;;4.97;3.08;;;20.20;99.90;;;;;;5002890;28;20117;-33
2023/09/02 08:02:17;;;;;;;4.20;2.78;;;20.20;99.90;;;;;;5001958;28;20045;-36
2023/09/02 08:04:43;;;;;;;3.10;2.80;;;20.40;99.90;;;;;;4999380;28;20120;-34
2023/09/02 08:07:08;;;;;;;3.58;2.50;;;20.50;99.90;;;;;;5005219;28;20068;-35
2023/09/02 08:09:34;;;;;;;3.10;2.55;;;20.90;99.90;;;;;;5002363;28;20026;-34
2023/09/02 08:11:59;;;;;;;3.58;2.55;;;21.20;99.90;;;;;;5004791;28;21269;-34
2023/09/02 08:14:25;;;;;;;2.97;2.47;;;21.40;99.90;;;;;;5000030;28;20036;-36
2023/09/02 08:16:50;;;;;;;3.53;2.85;;;21.10;99.90;;;;;;5000558;28;20030;-37
2023/09/02 08:19:16;;;;;;;3.03;2.20;;;21.00;99.90;;;;;;5002386;28;20111;-34
2023/09/02 08:21:42;;;;;;;3.28;2.22;;;21.00;99.90;;;;;;5003610;28;20085;-34
2023/09/02 08:24:08;;;;;;;2.50;2.30;;;21.10;99.90;;;;;;5004511;28;20837;-35
2023/09/02 08:26:33;;;;;;;3.67;2.17;;;21.20;99.90;;;;;;5001121;28;20037;-34
2023/09/02 08:28:59;;;;;;;3.53;2.33;;;21.60;99.90;;;;;;5002957;28;20029;-32
2023/09/02 08:31:24;;;;;;;2.65;2.10;;;21.90;99.90;;;;;;4999515;28;20507;-34
2023/09/02 08:33:53;;;;;;;2.45;2.10;;;21.90;99.90;;;;;;5002288;28;20075;-32
2023/09/02 08:36:19;;;;;;;2.28;1.67;;;22.10;99.90;;;;;;5003620;28;20073;-35
2023/09/02 08:38:44;;;;;;;3.00;1.90;;;22.30;99.90;;;;;;5001305;28;20060;-33
2023/09/02 08:41:22;;;;;;;2.88;1.70;;;22.60;99.90;;;;;;4999080;28;20030;-35
2023/09/02 08:43:50;;;;;;;;;;;22.70;99.90;;;;;;5002757;28;20018;-34
2023/09/02 08:46:18;;;;;;;2.92;1.33;;;22.50;99.90;;;;;;5003111;28;19909;-33
2023/09/02 08:48:44;;;;;;;1.67;1.50;;;22.40;99.90;;;;;;4999669;28;20629;-34
2023/09/02 08:51:11;;;;;;;2.00;1.40;;;22.60;99.90;;;;;;5003454;28;20030;-34
2023/09/02 08:53:38;;;;;;;1.50;1.30;;;22.90;99.90;;;;;;5002851;28;20096;-35
2023/09/02 08:56:07;;;;;;;2.00;1.60;;;23.20;99.90;;;;;;5001010;28;20112;-33
2023/09/02 08:58:33;;;;;;;2.05;1.30;;;23.20;99.90;;;;;;4999204;28;20053;-32
2023/09/02 09:00:59;;;;;;;2.10;1.40;;;23.00;99.90;;;;;;5004068;28;20037;-32
2023/09/02 09:03:28;;;;;;;1.75;1.30;;;23.20;99.90;;;;;;5003954;28;20084;-33
2023/09/02 09:05:54;;;;;;;1.75;1.30;;;23.50;99.90;;;;;;4999180;28;20806;-33
2023/09/02 09:08:21;;;;;;;1.95;1.30;;;23.80;99.90;;;;;;5003802;28;20022;-33
2023/09/02 09:10:48;;;;;;;1.75;1.55;;;23.90;99.90;;;;;;4998977;28;20121;-37
2023/09/02 09:13:16;;;;;;;2.53;1.48;;;23.80;99.90;;;;;;5002802;28;20044;-38
2023/09/02 09:15:42;;;;;;;1.65;1.45;;;23.90;99.90;;;;;;5000694;28;20045;-38
2023/09/02 09:18:11;;;;;;;1.60;1.30;;;24.30;99.90;;;;;;5003036;28;20116;-39
2023/09/02 09:20:39;;;;;;;2.58;1.45;;;24.30;99.90;;;;;;5004917;28;20500;-39
2023/09/02 09:23:08;;;;;;;1.50;1.40;;;23.90;99.90;;;;;;5000838;28;20045;-35
2023/09/02 09:25:35;;;;;;;2.35;1.85;;;23.70;99.90;;;;;;5003330;28;20148;-40
2023/09/02 09:28:11;;;;;;;1.80;1.42;;;23.60;99.90;;;;;;5000817;28;20025;-36
2023/09/02 09:30:37;;;;;;;2.33;1.58;;;23.70;99.90;;;;;;5002718;28;20038;-38
2023/09/02 09:33:05;;;;;;;1.40;1.30;;;23.80;99.90;;;;;;5002591;28;20030;-37
2023/09/02 09:35:32;;;;;;;1.63;1.40;;;23.80;99.90;;;;;;5007061;28;20014;-38
2023/09/02 09:37:58;;;;;;;1.85;1.40;;;23.90;99.90;;;;;;5004100;28;20022;-37
2023/09/02 09:40:33;;;;;;;2.22;1.60;;;24.00;99.90;;;;;;5002936;28;20033;-39
2023/09/02 09:43:00;;;;;;;1.42;1.33;;;23.90;99.90;;;;;;5003337;28;20029;-36
2023/09/02 09:45:27;;;;;;;1.70;1.13;;;24.00;99.90;;;;;;5006360;28;20511;-38
2023/09/02 09:47:57;;;;;;;2.83;1.40;;;24.20;99.90;;;;;;5003212;28;20038;-36
2023/09/02 09:50:22;;;;;;;1.98;1.10;;;24.40;99.90;;;;;;5001686;28;20530;-37
2023/09/02 09:53:04;;;;;;;1.30;1.20;;;24.50;99.90;;;;;;5000951;28;20029;-37
2023/09/02 09:55:30;;;;;;;1.27;1.02;;;24.70;99.90;;;;;;5002187;28;20103;-38
2023/09/02 09:57:57;;;;;;;2.05;1.25;;;24.90;99.90;;;;;;5002387;28;20113;-39
2023/09/02 10:00:24;;;;;;;1.48;1.23;;;25.20;99.90;;;;;;5004892;28;20498;-38
2023/09/02 10:02:57;;;;;;;1.27;1.17;;;25.40;99.90;;;;;;5002482;28;20488;-36
2023/09/02 10:05:28;;;;;;;2.13;1.10;;;25.20;99.90;;;;;;4999761;28;20034;-40
2023/09/02 10:08:01;;;;;;;1.70;1.60;;;25.00;99.90;;;;;;5001584;28;20109;-40
2023/09/02 10:10:32;;;;;;;3.13;1.48;;;24.60;99.90;;;;;;5004579;28;20053;-36
2023/09/02 10:12:59;;;;;;;1.38;1.20;;;24.90;99.90;;;;;;5002606;28;20029;-38
2023/09/02 10:15:26;;;;;;;3.08;1.20;;;25.00;99.90;;;;;;5001858;28;20151;-38
2023/09/02 10:17:59;;;;;;;1.15;1.05;;;25.30;99.90;;;;;;5005506;28;20018;-39
2023/09/02 10:20:28;;;;;;;1.92;1.30;;;25.30;99.90;;;;;;5006713;28;20117;-37
2023/09/02 10:22:56;;;;;;;1.50;1.25;;;25.60;99.90;;;;;;5004123;28;20099;-39
2023/09/02 10:25:29;;;;;;;2.08;1.27;;;26.00;99.90;;;;;;5005306;28;20033;-36
2023/09/02 10:28:05;;;;;;;1.75;1.20;;;25.70;99.90;;;;;;5006477;28;20029;-38
2023/09/02 10:30:35;;;;;;;1.35;1.20;;;25.80;99.90;;;;;;5003653;28;20121;-37
2023/09/02 10:33:45;;;;;;;1.48;1.10;;;26.00;99.90;;;;;;5006913;28;20030;-36
2023/09/02 10:36:17;;;;;;;2.35;1.20;;;26.20;99.90;;;;;;5001833;28;20026;-34
2023/09/02 10:38:47;;;;;;;0.77;0.77;;;26.00;99.90;;;;;;5005251;28;20091;-35
2023/09/02 10:41:14;;;;;;;1.50;1.00;;;25.90;99.90;;;;;;5006148;28;20073;-39
2023/09/02 10:43:42;;;;;;;1.60;1.02;;;25.50;99.90;;;;;;5006877;28;20030;-37
2023/09/02 10:46:08;;;;;;;2.65;1.10;;;25.20;99.90;;;;;;5007559;28;20029;-37
2023/09/02 10:48:37;;;;;;;1.38;1.05;;;25.10;99.90;;;;;;5003488;28;20787;-38
2023/09/02 10:51:04;;;;;;;1.30;0.90;;;25.30;99.90;;;;;;5007964;28;20498;-39
2023/09/02 10:53:48;;;;;;;1.02;0.93;;;25.50;99.90;;;;;;5010961;28;20054;-38
2023/09/02 10:56:35;;;;;;;1.20;0.80;;;26.00;99.90;;;;;;5002912;28;20411;-38
2023/09/02 10:59:05;;;;;;;1.13;1.00;;;26.40;99.90;;;;;;4999907;28;20037;-39
2023/09/02 11:01:48;;;;;;;1.55;0.93;;;26.40;99.90;;;;;;5008813;28;20458;-35
2023/09/02 11:04:16;;;;;;;2.95;1.30;;;26.80;99.90;;;;;;5005651;28;20034;-38
2023/09/02 11:07:19;;;;;;;1.33;1.05;;;27.00;99.90;;;;;;5010856;28;20017;-36
2023/09/02 11:09:54;;;;;;;1.25;1.13;;;27.20;99.90;;;;;;5006856;28;20026;-37
2023/09/02 11:12:21;;;;;;;1.75;1.10;;;27.30;99.90;;;;;;5005336;28;20026;-38
2023/09/02 11:15:11;;;;;;;1.10;1.00;;;26.80;99.90;;;;;;5004648;28;20029;-36
2023/09/02 11:17:41;;;;;;;1.20;1.05;;;26.60;99.90;;;;;;4999905;28;20030;-37
2023/09/02 11:20:08;;;;;;;2.15;1.10;;;26.20;99.90;;;;;;5007656;28;20506;-38
2023/09/02 11:22:54;;;;;;;1.20;1.10;;;25.60;99.90;;;;;;5003599;28;20503;-39
2023/09/02 11:25:37;;;;;;;1.15;1.02;;;25.30;99.90;;;;;;5004065;28;20406;-36
2023/09/02 11:28:26;;;;;;;1.15;1.02;;;25.00;99.90;;;;;;5007444;28;20602;-39
2023/09/02 11:31:16;;;;;;;1.40;1.13;;;25.00;99.90;;;;;;5002718;28;20113;-35
2023/09/02 11:33:47;;;;;;;1.52;1.05;;;25.10;99.90;;;;;;5004221;28;20050;-34
2023/09/02 11:36:17;;;;;;;1.10;1.00;;;25.20;99.90;;;;;;5004889;28;20506;-35
2023/09/02 11:38:43;;;;;;;1.40;0.98;;;25.20;99.90;;;;;;5003470;28;20502;-34
2023/09/02 11:41:09;;;;;;;1.30;1.20;;;25.60;99.90;;;;;;5004260;28;20076;-33
2023/09/02 11:43:36;;;;;;;1.25;1.08;;;25.80;99.90;;;;;;5005516;28;20036;-33
2023/09/02 11:46:03;;;;;;;1.30;1.20;;;25.60;99.90;;;;;;5009573;28;20724;-32
2023/09/02 11:48:30;;;;;;;1.10;1.00;;;25.50;99.90;;;;;;5005087;28;20034;-33
2023/09/02 11:50:59;;;;;;;2.05;1.00;;;25.50;99.90;;;;;;5006841;28;20476;-33
2023/09/02 11:53:27;;;;;;;1.85;1.20;;;25.40;99.90;;;;;;5008341;28;20029;-36
2023/09/02 11:55:52;;;;;;;1.20;1.10;;;25.40;99.90;;;;;;5002946;28;20498;-32
2023/09/02 11:58:19;;;;;;;1.27;1.17;;;25.40;99.90;;;;;;5006174;28;20120;-32
2023/09/02 12:00:45;;;;;;;2.85;1.15;;;25.40;99.90;;;;;;5004901;28;20116;-33
2023/09/02 12:03:14;;;;;;;1.20;1.10;;;25.40;99.90;;;;;;5003740;28;20569;-36
2023/09/02 12:05:50;;;;;;;2.17;1.20;;;25.40;99.90;;;;;;5003471;28;20026;-32
2023/09/02 12:08:17;;;;;;;1.52;1.02;;;25.50;99.90;;;;;;5002920;28;20033;-36
2023/09/02 12:10:46;;;;;;;1.30;1.20;;;25.50;99.90;;;;;;5002868;28;20448;-37
2023/09/02 12:13:12;;;;;;;1.73;1.17;;;25.60;99.90;;;;;;5003932;28;20164;-32
2023/09/02 12:15:38;;;;;;;2.10;1.10;;;26.00;99.90;;;;;;5005574;28;20846;-32
2023/09/02 12:18:05;;;;;;;1.95;1.40;;;26.20;99.90;;;;;;5002245;28;20470;-34
2023/09/02 12:20:31;;;;;;;1.80;1.23;;;26.30;99.90;;;;;;5002724;28;20083;-37
2023/09/02 12:22:57;;;;;;;1.80;1.05;;;26.30;99.90;;;;;;5004324;28;20614;-33
2023/09/02 12:25:24;;;;;;;1.05;1.02;;;26.40;99.90;;;;;;5005751;28;20026;-32
2023/09/02 12:27:51;;;;;;;1.38;1.10;;;26.60;99.90;;;;;;5003188;28;20064;-32
2023/09/02 12:30:30;;;;;;;2.13;1.10;;;26.60;99.90;;;;;;5001323;28;20026;-32
2023/09/02 12:32:57;;;;;;;1.00;1.00;;;26.60;99.90;;;;;;5005464;28;20387;-33
2023/09/02 12:35:23;;;;;;;1.23;1.10;;;26.60;99.90;;;;;;5001676;28;20037;-32
2023/09/02 12:38:03;;;;;;;2.20;1.30;;;26.70;99.90;;;;;;5006264;28;20451;-35
2023/09/02 12:40:29;;;;;;;1.15;1.10;;;26.60;99.90;;;;;;5001096;28;20038;-37
2023/09/02 12:42:55;;;;;;;2.35;1.10;;;26.20;99.90;;;;;;5003112;28;20084;-36
2023/09/02 12:45:32;;;;;;;1.40;1.30;;;25.90;99.90;;;;;;4996274;28;20449;-33
2023/09/02 12:47:59;;;;;;;2.00;1.40;;;25.90;99.90;;;;;;5002258;28;20026;-35
2023/09/02 12:50:26;;;;;;;2.65;1.40;;;25.80;99.90;;;;;;5004251;28;20102;-38
2023/09/02 12:52:57;;;;;;;1.30;1.20;;;25.80;99.90;;;;;;5006237;28;20032;-40